createdAt,value
2022-08-24T00:00:58.311Z,17.88
2022-08-24T00:04:00.336Z,17.84
2022-08-24T00:07:04.336Z,17.84
2022-08-24T00:10:07.672Z,17.84
2022-08-24T00:13:09.664Z,17.76
2022-08-24T00:16:12.265Z,17.73
2022-08-24T00:19:14.675Z,17.71
2022-08-24T00:22:16.707Z,17.66
2022-08-24T00:25:19.022Z,17.69
2022-08-24T00:28:21.218Z,17.74
2022-08-24T00:31:23.426Z,17.77
2022-08-24T00:34:25.836Z,17.78
2022-08-24T00:37:28.659Z,17.76
2022-08-24T00:40:35.499Z,17.70
2022-08-24T00:43:37.904Z,17.70
2022-08-24T00:46:49.769Z,17.64
2022-08-24T00:50:06.003Z,17.57
2022-08-24T00:53:12.207Z,17.52
2022-08-24T00:56:23.756Z,17.53
2022-08-24T00:59:32.520Z,17.49
2022-08-24T01:02:38.547Z,17.44
2022-08-24T01:05:41.533Z,17.43
2022-08-24T01:08:43.645Z,17.39
2022-08-24T01:11:45.964Z,17.35
2022-08-24T01:14:48.339Z,17.33
2022-08-24T01:17:50.643Z,17.32
2022-08-24T01:21:20.678Z,17.32
2022-08-24T01:24:22.710Z,17.33
2022-08-24T01:27:27.856Z,17.35
2022-08-24T01:30:36.273Z,17.38
2022-08-24T01:33:39.000Z,17.43
2022-08-24T01:36:46.367Z,17.47
2022-08-24T01:39:51.838Z,17.45
2022-08-24T01:42:54.013Z,17.46
2022-08-24T01:45:57.016Z,17.46
2022-08-24T01:48:59.063Z,17.43
2022-08-24T01:52:01.932Z,17.43
2022-08-24T01:55:07.791Z,17.40
2022-08-24T01:58:09.855Z,17.39
2022-08-24T02:01:13.336Z,17.37
2022-08-24T02:04:17.663Z,17.29
2022-08-24T02:07:22.755Z,17.25
2022-08-24T02:10:26.907Z,17.24
2022-08-24T02:13:29.516Z,17.23
2022-08-24T02:16:31.737Z,17.22
2022-08-24T02:19:34.244Z,17.28
2022-08-24T02:22:36.296Z,17.38
2022-08-24T02:25:38.381Z,17.47
2022-08-24T02:28:41.091Z,17.53
2022-08-24T02:31:43.755Z,17.55
2022-08-24T02:34:46.547Z,17.51
2022-08-24T02:37:48.917Z,17.46
2022-08-24T02:40:52.233Z,17.41
2022-08-24T02:43:56.061Z,17.38
2022-08-24T02:46:58.104Z,17.37
2022-08-24T02:50:01.609Z,17.34
2022-08-24T02:53:03.754Z,17.35
2022-08-24T02:56:06.532Z,17.29
2022-08-24T02:59:08.715Z,17.28
2022-08-24T03:02:10.933Z,17.28
2022-08-24T03:05:13.425Z,17.28
2022-08-24T03:08:15.555Z,17.30
2022-08-24T03:11:19.353Z,17.32
2022-08-24T03:14:21.448Z,17.32
2022-08-24T03:17:23.540Z,17.31
2022-08-24T03:20:25.609Z,17.33
2022-08-24T03:23:27.635Z,17.36
2022-08-24T03:26:36.396Z,17.30
2022-08-24T03:29:38.436Z,17.28
2022-08-24T03:32:42.602Z,17.26
2022-08-24T03:35:45.364Z,17.28
2022-08-24T03:38:50.903Z,17.32
2022-08-24T03:41:55.377Z,17.30
2022-08-24T03:45:00.366Z,17.29
2022-08-24T03:48:02.440Z,17.34
2022-08-24T03:51:06.076Z,17.41
2022-08-24T03:54:09.507Z,17.43
2022-08-24T03:57:11.590Z,17.41
2022-08-24T04:00:14.414Z,17.38
2022-08-24T04:03:28.703Z,17.37
2022-08-24T04:06:35.116Z,17.40
2022-08-24T04:09:38.076Z,17.49
2022-08-24T04:12:40.479Z,17.57
2022-08-24T04:15:43.096Z,17.64
2022-08-24T04:18:46.296Z,17.65
2022-08-24T04:21:48.909Z,17.65
2022-08-24T04:24:53.925Z,17.63
2022-08-24T04:27:55.936Z,17.60
2022-08-24T04:30:58.257Z,17.59
2022-08-24T04:34:07.119Z,17.59
2022-08-24T04:37:11.472Z,17.55
2022-08-24T04:40:13.905Z,17.50
2022-08-24T04:43:21.856Z,17.54
2022-08-24T04:46:24.081Z,17.46
2022-08-24T04:49:26.135Z,17.40
2022-08-24T04:52:28.702Z,17.32
2022-08-24T04:55:32.069Z,17.26
2022-08-24T04:58:34.379Z,17.24
2022-08-24T05:01:36.509Z,17.26
2022-08-24T05:04:40.806Z,17.37
2022-08-24T05:07:43.260Z,17.54
2022-08-24T05:10:47.668Z,17.75
2022-08-24T05:13:54.778Z,18.01
2022-08-24T05:16:56.834Z,18.23
2022-08-24T05:19:59.300Z,18.48
2022-08-24T05:23:05.509Z,18.64
2022-08-24T05:26:16.987Z,18.77
2022-08-24T05:29:19.999Z,18.90
2022-08-24T05:32:24.732Z,18.98
2022-08-24T05:35:28.404Z,19.05
2022-08-24T05:38:33.277Z,19.18
2022-08-24T05:41:35.354Z,19.29
2022-08-24T05:44:45.465Z,19.51
2022-08-24T05:47:47.502Z,19.71
2022-08-24T05:51:09.026Z,19.95
2022-08-24T05:54:21.073Z,20.17
2022-08-24T05:57:33.141Z,20.43
2022-08-24T06:00:48.213Z,20.70
2022-08-24T06:03:51.415Z,20.83
2022-08-24T06:06:53.474Z,21.11
2022-08-24T06:09:55.623Z,21.12
2022-08-24T06:12:57.712Z,21.33
2022-08-24T06:16:22.137Z,21.37
2022-08-24T06:19:25.386Z,21.14
2022-08-24T06:22:28.063Z,21.07
2022-08-24T06:25:30.357Z,20.96
2022-08-24T06:28:34.261Z,20.91
2022-08-24T06:31:42.153Z,20.84
2022-08-24T06:34:46.284Z,20.94
2022-08-24T06:37:48.291Z,21.04
2022-08-24T06:40:50.981Z,21.27
2022-08-24T06:43:54.424Z,21.35
2022-08-24T06:47:01.577Z,21.39
2022-08-24T06:50:03.977Z,21.45
2022-08-24T06:53:06.038Z,21.60
2022-08-24T06:56:09.286Z,21.73
2022-08-24T06:59:11.252Z,21.84
2022-08-24T07:02:13.285Z,21.91
2022-08-24T07:05:15.444Z,22.04
2022-08-24T07:08:36.173Z,22.48
2022-08-24T07:11:38.412Z,23.54
2022-08-24T07:14:41.432Z,23.80
2022-08-24T07:17:43.500Z,24.57
2022-08-24T07:20:46.506Z,24.78
2022-08-24T07:24:02.284Z,25.47
2022-08-24T07:27:08.190Z,26.34
2022-08-24T07:30:26.379Z,25.70
2022-08-24T07:33:29.426Z,25.67
2022-08-24T07:36:31.636Z,25.62
2022-08-24T07:39:35.373Z,26.26
2022-08-24T07:42:37.853Z,27.49
2022-08-24T07:45:42.161Z,28.11
2022-08-24T07:48:44.722Z,28.18
2022-08-24T07:51:47.215Z,28.79
2022-08-24T07:54:49.621Z,29.11
2022-08-24T07:57:52.248Z,30.10
2022-08-24T08:00:54.480Z,29.73
2022-08-24T08:03:56.502Z,29.58
2022-08-24T08:06:58.773Z,29.93
2022-08-24T08:10:01.636Z,29.86
2022-08-24T08:13:05.658Z,29.84
2022-08-24T08:16:08.650Z,29.99
2022-08-24T08:19:11.391Z,31.25
2022-08-24T08:22:17.813Z,30.81
2022-08-24T08:25:40.930Z,30.61
2022-08-24T08:28:51.816Z,31.35
2022-08-24T08:31:54.701Z,31.25
2022-08-24T08:35:00.193Z,30.65
2022-08-24T08:38:05.259Z,30.50
2022-08-24T08:41:18.177Z,30.64
2022-08-24T08:45:00.075Z,30.91
2022-08-24T08:51:48.722Z,31.67
2022-08-24T08:55:02.610Z,32.08
2022-08-24T08:58:30.769Z,30.62
2022-08-24T09:01:57.804Z,30.34
2022-08-24T09:05:56.899Z,31.52
2022-08-24T09:09:31.858Z,30.20
2022-08-24T09:13:09.179Z,30.17
2022-08-24T09:16:27.555Z,31.22
2022-08-24T09:19:58.316Z,30.41
2022-08-24T09:23:19.753Z,30.25
2022-08-24T09:26:42.669Z,30.23
2022-08-24T09:29:51.906Z,30.95
2022-08-24T09:32:58.234Z,31.30
2022-08-24T09:36:08.083Z,30.70
2022-08-24T09:39:32.406Z,30.18
2022-08-24T09:42:50.045Z,30.19
2022-08-24T09:46:13.666Z,31.16
2022-08-24T09:49:48.925Z,31.46
2022-08-24T09:53:01.854Z,31.78
2022-08-24T09:56:22.229Z,31.44
2022-08-24T09:59:58.151Z,30.68
2022-08-24T10:03:33.923Z,30.94
2022-08-24T10:06:51.598Z,31.30
2022-08-24T10:10:03.215Z,32.24
2022-08-24T10:13:25.406Z,31.60
2022-08-24T10:16:36.181Z,31.90
2022-08-24T10:19:58.439Z,32.05
2022-08-24T10:23:18.685Z,31.57
2022-08-24T10:26:49.607Z,31.25
2022-08-24T10:30:23.718Z,31.25
2022-08-24T10:33:51.909Z,31.08
2022-08-24T10:37:13.238Z,31.07
2022-08-24T10:40:17.058Z,30.67
2022-08-24T10:44:09.603Z,30.77
2022-08-24T10:47:24.204Z,30.74
2022-08-24T10:51:12.339Z,30.51
2022-08-24T10:54:14.613Z,29.81
2022-08-24T10:57:57.902Z,28.91
2022-08-24T11:01:18.295Z,27.90
2022-08-24T11:04:29.296Z,27.36
2022-08-24T11:07:32.325Z,27.18
2022-08-24T11:10:35.791Z,27.11
2022-08-24T11:13:59.257Z,27.52
2022-08-24T11:17:31.520Z,27.97
2022-08-24T11:20:39.415Z,28.50
2022-08-24T11:23:42.892Z,28.67
2022-08-24T11:27:01.653Z,28.94
2022-08-24T11:30:23.615Z,29.39
2022-08-24T11:33:44.101Z,29.85
2022-08-24T11:36:46.135Z,30.50
2022-08-24T11:39:48.355Z,31.58
2022-08-24T11:43:19.231Z,32.77
2022-08-24T11:46:28.453Z,33.03
2022-08-24T11:50:06.227Z,33.02
2022-08-24T11:53:30.046Z,33.09
2022-08-24T11:57:10.118Z,32.63
2022-08-24T12:00:18.292Z,33.11
2022-08-24T12:03:45.391Z,32.86
2022-08-24T12:07:14.951Z,32.63
2022-08-24T12:10:48.845Z,31.98
2022-08-24T12:13:58.317Z,32.13
2022-08-24T12:17:19.180Z,31.61
2022-08-24T12:20:24.205Z,31.24
2022-08-24T12:23:42.250Z,30.48
2022-08-24T12:26:49.732Z,30.72
2022-08-24T12:30:13.161Z,31.29
2022-08-24T12:33:18.334Z,30.92
2022-08-24T12:36:33.407Z,30.49
2022-08-24T12:39:48.443Z,30.48
2022-08-24T12:42:55.153Z,30.96
2022-08-24T12:45:59.781Z,31.06
2022-08-24T12:49:13.156Z,30.83
2022-08-24T12:52:21.324Z,30.85
2022-08-24T12:56:04.933Z,30.74
2022-08-24T12:59:12.936Z,30.89
2022-08-24T13:02:14.934Z,31.67
2022-08-24T13:05:19.642Z,32.19
2022-08-24T13:08:34.528Z,32.48
2022-08-24T13:11:36.540Z,32.11
2022-08-24T13:14:38.589Z,32.35
2022-08-24T13:17:41.710Z,31.10
2022-08-24T13:20:43.750Z,30.60
2022-08-24T13:23:46.352Z,30.31
2022-08-24T13:26:48.382Z,30.07
2022-08-24T13:30:21.409Z,29.49
2022-08-24T13:33:44.791Z,29.29
2022-08-24T13:36:49.951Z,29.07
2022-08-24T13:40:17.020Z,29.01
2022-08-24T13:43:27.875Z,29.24
2022-08-24T13:46:54.802Z,29.28
2022-08-24T13:50:13.571Z,29.41
2022-08-24T13:53:54.680Z,29.30
2022-08-24T13:57:05.329Z,29.35
2022-08-24T14:00:38.818Z,29.29
2022-08-24T14:04:04.169Z,29.24
2022-08-24T14:07:20.567Z,29.19
2022-08-24T14:10:31.776Z,29.68
2022-08-24T14:13:42.648Z,29.52
2022-08-24T14:17:19.429Z,29.39
2022-08-24T14:20:27.990Z,29.50
2022-08-24T14:23:44.257Z,30.00
2022-08-24T14:26:49.791Z,29.68
2022-08-24T14:30:13.046Z,29.52
2022-08-24T14:33:28.163Z,29.28
2022-08-24T14:36:50.197Z,29.40
2022-08-24T14:40:43.782Z,29.30
2022-08-24T14:44:04.322Z,28.88
2022-08-24T14:47:19.135Z,29.05
2022-08-24T14:50:43.507Z,29.18
2022-08-24T14:54:32.588Z,29.72
2022-08-24T14:57:57.281Z,29.93
2022-08-24T15:01:14.453Z,30.36
2022-08-24T15:04:41.668Z,30.14
2022-08-24T15:07:58.069Z,30.76
2022-08-24T15:11:10.081Z,30.82
2022-08-24T15:14:38.703Z,31.13
2022-08-24T15:18:06.512Z,31.01
2022-08-24T15:21:21.908Z,30.26
2022-08-24T15:24:54.912Z,30.54
2022-08-24T15:28:15.171Z,30.28
2022-08-24T15:31:29.150Z,30.23
2022-08-24T15:34:37.046Z,30.38
2022-08-24T15:37:39.053Z,30.59
2022-08-24T15:40:45.154Z,30.70
2022-08-24T15:44:03.475Z,30.66
2022-08-24T15:47:28.484Z,30.09
2022-08-24T15:50:40.175Z,29.46
2022-08-24T15:53:42.465Z,28.99
2022-08-24T15:56:48.403Z,28.81
2022-08-24T15:59:53.696Z,28.93
2022-08-24T16:03:22.584Z,28.94
2022-08-24T16:06:24.516Z,29.56
2022-08-24T16:09:27.950Z,29.56
2022-08-24T16:12:32.537Z,29.69
2022-08-24T16:15:34.993Z,29.70
2022-08-24T16:18:50.973Z,29.30
2022-08-24T16:21:58.393Z,28.81
2022-08-24T16:25:15.626Z,28.51
2022-08-24T16:28:20.544Z,28.59
2022-08-24T16:31:40.486Z,28.57
2022-08-24T16:34:45.827Z,28.59
2022-08-24T16:37:48.398Z,28.15
2022-08-24T16:40:50.860Z,27.77
2022-08-24T16:43:52.964Z,27.63
2022-08-24T16:46:54.997Z,27.39
2022-08-24T16:49:57.332Z,27.13
2022-08-24T16:52:59.355Z,27.05
2022-08-24T16:56:01.511Z,26.73
2022-08-24T16:59:04.077Z,26.55
2022-08-24T17:02:06.219Z,26.46
2022-08-24T17:05:11.384Z,26.34
2022-08-24T17:08:13.419Z,26.19
2022-08-24T17:11:18.139Z,26.10
2022-08-24T17:14:20.147Z,25.97
2022-08-24T17:17:22.226Z,25.96
2022-08-24T17:20:24.355Z,25.91
2022-08-24T17:23:26.569Z,25.83
2022-08-24T17:26:31.040Z,25.75
2022-08-24T17:29:33.276Z,25.69
2022-08-24T17:32:35.340Z,25.64
2022-08-24T17:35:38.853Z,25.55
2022-08-24T17:38:44.225Z,25.47
2022-08-24T17:41:46.441Z,25.36
2022-08-24T17:44:48.607Z,25.32
2022-08-24T17:47:51.560Z,25.24
2022-08-24T17:50:54.098Z,25.05
2022-08-24T17:53:56.121Z,24.90
2022-08-24T17:56:58.846Z,24.73
2022-08-24T18:00:01.033Z,24.69
2022-08-24T18:03:03.338Z,24.69
2022-08-24T18:06:05.556Z,24.65
2022-08-24T18:09:14.417Z,24.60
2022-08-24T18:12:18.781Z,24.53
2022-08-24T18:15:21.272Z,24.51
2022-08-24T18:18:24.994Z,24.42
2022-08-24T18:21:27.100Z,24.37
2022-08-24T18:24:29.995Z,24.26
2022-08-24T18:27:32.759Z,24.15
2022-08-24T18:30:35.990Z,24.03
2022-08-24T18:33:39.612Z,23.91
2022-08-24T18:36:41.668Z,23.86
2022-08-24T18:39:43.716Z,23.77
2022-08-24T18:42:46.022Z,23.63
2022-08-24T18:45:48.176Z,23.51
2022-08-24T18:48:50.226Z,23.47
2022-08-24T18:51:52.798Z,23.42
2022-08-24T18:54:55.003Z,23.38
2022-08-24T18:57:57.234Z,23.30
2022-08-24T19:00:59.350Z,23.29
2022-08-24T19:04:08.536Z,23.27
2022-08-24T19:07:14.588Z,23.21
2022-08-24T19:10:20.726Z,23.20
2022-08-24T19:13:22.832Z,23.20
2022-08-24T19:16:24.900Z,23.16
2022-08-24T19:19:26.951Z,23.04
2022-08-24T19:22:29.980Z,22.98
2022-08-24T19:25:32.198Z,22.92
2022-08-24T19:28:34.456Z,22.85
2022-08-24T19:31:36.635Z,22.73
2022-08-24T19:34:38.990Z,22.63
2022-08-24T19:37:44.497Z,22.51
2022-08-24T19:40:48.022Z,22.46
2022-08-24T19:43:56.670Z,22.38
2022-08-24T19:46:59.073Z,22.33
2022-08-24T19:50:02.127Z,22.28
2022-08-24T19:53:05.826Z,22.28
2022-08-24T19:56:08.465Z,22.25
2022-08-24T19:59:32.784Z,22.18
2022-08-24T20:02:36.523Z,22.11
2022-08-24T20:05:38.752Z,22.15
2022-08-24T20:08:41.152Z,22.13
2022-08-24T20:11:43.205Z,22.11
2022-08-24T20:14:45.244Z,22.04
2022-08-24T20:17:48.898Z,21.94
2022-08-24T20:20:50.797Z,21.86
2022-08-24T20:23:53.306Z,21.83
2022-08-24T20:26:55.708Z,21.75
2022-08-24T20:30:00.070Z,21.70
2022-08-24T20:33:02.861Z,21.69
2022-08-24T20:36:06.022Z,21.63
2022-08-24T20:39:11.415Z,21.61
2022-08-24T20:42:17.325Z,21.55
2022-08-24T20:45:21.548Z,21.51
2022-08-24T20:48:28.003Z,21.52
2022-08-24T20:51:30.071Z,21.44
2022-08-24T20:54:34.620Z,21.39
2022-08-24T20:57:38.779Z,21.33
2022-08-24T21:00:41.497Z,21.27
2022-08-24T21:03:43.670Z,21.23
2022-08-24T21:09:47.475Z,21.20
2022-08-24T21:12:49.767Z,21.18
2022-08-24T21:15:51.910Z,21.14
2022-08-24T21:18:53.985Z,21.09
2022-08-24T21:21:56.124Z,21.07
2022-08-24T21:24:58.140Z,21.07
2022-08-24T21:28:02.064Z,21.06
2022-08-24T21:31:06.352Z,21.06
2022-08-24T21:34:08.602Z,21.02
2022-08-24T21:37:17.274Z,21.06
2022-08-24T21:40:20.799Z,21.08
2022-08-24T21:43:22.860Z,21.07
2022-08-24T21:46:32.257Z,21.05
2022-08-24T21:49:34.714Z,21.05
2022-08-24T21:52:36.864Z,21.01
2022-08-24T21:55:39.475Z,21.04
2022-08-24T21:58:41.491Z,21.01
2022-08-24T22:01:43.608Z,21.05
2022-08-24T22:04:46.534Z,21.09
2022-08-24T22:07:48.499Z,21.06
2022-08-24T22:10:50.527Z,21.06
2022-08-24T22:13:53.284Z,21.03
2022-08-24T22:16:55.300Z,21.00
2022-08-24T22:19:57.529Z,21.02
2022-08-24T22:22:59.697Z,21.05
2022-08-24T22:26:01.839Z,21.08
2022-08-24T22:29:05.151Z,21.03
2022-08-24T22:32:07.728Z,21.05
2022-08-24T22:35:10.362Z,21.02
2022-08-24T22:38:13.043Z,20.99
2022-08-24T22:41:15.134Z,20.98
2022-08-24T22:44:17.170Z,21.00
2022-08-24T22:47:19.181Z,20.97
2022-08-24T22:50:21.929Z,20.92
2022-08-24T22:53:24.096Z,20.89
2022-08-24T22:56:37.573Z,20.89
2022-08-24T22:59:42.553Z,20.87
2022-08-24T23:02:44.587Z,20.86
2022-08-24T23:05:46.599Z,20.89
2022-08-24T23:08:48.723Z,20.87
2022-08-24T23:11:51.161Z,20.91
2022-08-24T23:14:53.186Z,20.87
2022-08-24T23:17:55.216Z,20.89
2022-08-24T23:20:57.299Z,20.91
2022-08-24T23:23:59.331Z,20.90
2022-08-24T23:27:02.812Z,20.95
2022-08-24T23:30:09.843Z,21.01
2022-08-24T23:33:11.879Z,21.03
2022-08-24T23:36:18.811Z,21.08
2022-08-24T23:39:20.828Z,21.12
2022-08-24T23:42:22.877Z,21.14
2022-08-24T23:45:28.493Z,21.12
2022-08-24T23:48:33.209Z,21.05
2022-08-24T23:51:35.765Z,20.97
2022-08-24T23:54:37.831Z,20.92
2022-08-24T23:57:39.985Z,20.83
